createdAt,value
2022-12-11T00:00:42.999Z,13.57
2022-12-11T00:05:44.707Z,14.32
2022-12-11T00:10:49.909Z,13.43
2022-12-11T00:15:51.152Z,12.02
2022-12-11T00:20:52.456Z,10.93
2022-12-11T00:25:53.754Z,11.93
2022-12-11T00:30:55.302Z,12.23
2022-12-11T00:35:56.656Z,14.77
2022-12-11T00:40:59.167Z,16.10
2022-12-11T00:46:00.508Z,15.32
2022-12-11T00:51:01.755Z,12.10
2022-12-11T00:56:08.960Z,11.93
2022-12-11T01:01:11.856Z,11.52
2022-12-11T01:06:13.907Z,13.93
2022-12-11T01:11:16.206Z,16.02
2022-12-11T01:16:17.512Z,15.33
2022-12-11T01:21:19.118Z,14.60
2022-12-11T01:26:20.504Z,14.30
2022-12-11T01:31:22.188Z,13.65
2022-12-11T01:36:23.614Z,13.35
2022-12-11T01:41:25.081Z,14.07
2022-12-11T01:46:26.569Z,14.35
2022-12-11T01:51:29.070Z,14.13
2022-12-11T01:56:31.121Z,14.65
2022-12-11T02:01:35.500Z,14.48
2022-12-11T02:06:36.851Z,14.43
2022-12-11T02:11:49.825Z,13.55
2022-12-11T02:16:55.650Z,14.07
2022-12-11T02:21:57.835Z,14.85
2022-12-11T02:27:05.120Z,15.02
2022-12-11T02:32:13.647Z,14.70
2022-12-11T02:37:22.946Z,13.98
2022-12-11T02:42:26.817Z,14.45
2022-12-11T02:47:29.788Z,13.93
2022-12-11T02:52:32.449Z,14.20
2022-12-11T02:57:37.977Z,13.97
2022-12-11T03:02:40.195Z,15.63
2022-12-11T03:07:43.055Z,14.32
2022-12-11T03:12:51.821Z,14.32
2022-12-11T03:18:15.036Z,14.77
2022-12-11T03:23:32.179Z,14.07
2022-12-11T03:28:43.974Z,14.50
2022-12-11T03:33:47.445Z,14.20
2022-12-11T03:38:50.929Z,14.40
2022-12-11T03:43:53.718Z,14.10
2022-12-11T03:48:56.422Z,13.90
2022-12-11T03:53:58.324Z,15.02
2022-12-11T03:58:59.600Z,15.02
2022-12-11T04:04:00.989Z,15.15
2022-12-11T04:09:02.250Z,14.85
2022-12-11T04:14:22.773Z,17.53
2022-12-11T04:19:42.981Z,17.45
2022-12-11T04:24:44.192Z,14.48
2022-12-11T04:29:45.439Z,15.73
2022-12-11T04:34:46.689Z,15.40
2022-12-11T04:39:47.932Z,15.27
2022-12-11T04:44:49.209Z,14.02
2022-12-11T04:49:50.619Z,14.50
2022-12-11T04:54:51.880Z,13.48
2022-12-11T04:59:53.126Z,14.15
2022-12-11T05:04:54.458Z,14.67
2022-12-11T05:09:55.695Z,14.45
2022-12-11T05:14:56.932Z,14.30
2022-12-11T05:19:58.173Z,14.95
2022-12-11T05:24:59.465Z,14.40
2022-12-11T05:30:00.739Z,13.20
2022-12-11T05:35:03.681Z,14.40
2022-12-11T05:40:06.295Z,13.77
2022-12-11T05:45:07.714Z,15.05
2022-12-11T05:50:09.281Z,14.55
2022-12-11T05:55:10.811Z,13.87
2022-12-11T06:00:12.775Z,14.48
2022-12-11T06:05:14.063Z,15.45
2022-12-11T06:10:15.371Z,13.48
2022-12-11T06:15:16.653Z,14.80
2022-12-11T06:20:17.931Z,14.67
2022-12-11T06:25:19.242Z,18.02
2022-12-11T06:30:20.777Z,16.40
2022-12-11T06:35:22.006Z,14.43
2022-12-11T06:40:23.275Z,15.50
2022-12-11T06:45:24.573Z,14.83
2022-12-11T06:50:26.115Z,14.93
2022-12-11T06:55:27.357Z,13.77
2022-12-11T07:00:28.630Z,15.60
2022-12-11T07:05:30.538Z,13.90
2022-12-11T07:10:32.316Z,14.03
2022-12-11T07:15:36.439Z,13.48
2022-12-11T07:20:41.398Z,17.95
2022-12-11T07:25:42.686Z,15.82
2022-12-11T07:30:43.995Z,15.50
2022-12-11T07:35:45.224Z,12.43
2022-12-11T07:40:46.453Z,12.02
2022-12-11T07:45:47.764Z,14.70
2022-12-11T07:50:49.061Z,13.68
2022-12-11T07:55:50.353Z,13.68
2022-12-11T08:00:51.932Z,15.80
2022-12-11T08:05:53.395Z,16.20
2022-12-11T08:10:54.741Z,15.63
2022-12-11T08:15:56.011Z,14.65
2022-12-11T08:20:57.248Z,13.77
2022-12-11T08:25:58.493Z,13.90
2022-12-11T08:31:00.002Z,13.60
2022-12-11T08:36:04.760Z,14.07
2022-12-11T08:41:09.175Z,14.95
2022-12-11T08:46:11.336Z,15.15
2022-12-11T08:51:13.650Z,13.93
2022-12-11T08:56:19.350Z,13.95
2022-12-11T09:01:25.120Z,13.73
2022-12-11T09:06:27.550Z,14.20
2022-12-11T09:11:30.450Z,14.18
2022-12-11T09:16:32.083Z,15.17
2022-12-11T09:21:33.594Z,15.25
2022-12-11T09:26:34.847Z,12.82
2022-12-11T09:31:36.559Z,12.70
2022-12-11T09:36:38.511Z,15.80
2022-12-11T09:41:45.908Z,12.93
2022-12-11T09:46:47.727Z,11.70
2022-12-11T09:51:58.177Z,13.65
2022-12-11T09:57:19.719Z,12.95
2022-12-11T10:02:20.988Z,13.15
2022-12-11T10:07:27.113Z,13.33
2022-12-11T10:12:28.412Z,13.32
2022-12-11T10:17:31.783Z,13.25
2022-12-11T10:22:34.594Z,12.50
2022-12-11T10:27:38.516Z,19.48
2022-12-11T10:32:45.634Z,15.43
2022-12-11T10:37:46.978Z,14.25
2022-12-11T10:42:53.116Z,12.00
2022-12-11T10:48:14.651Z,13.15
2022-12-11T10:53:22.244Z,12.68
2022-12-11T10:58:24.941Z,13.43
2022-12-11T11:03:27.640Z,12.48
2022-12-11T11:08:39.982Z,13.05
2022-12-11T11:13:41.291Z,14.55
2022-12-11T11:18:48.802Z,13.85
2022-12-11T11:23:53.644Z,13.67
2022-12-11T11:28:56.424Z,14.10
2022-12-11T11:33:59.547Z,12.70
2022-12-11T11:39:12.798Z,12.43
2022-12-11T11:44:16.144Z,12.35
2022-12-11T11:49:24.498Z,10.70
2022-12-11T11:54:29.125Z,13.55
2022-12-11T11:59:41.429Z,13.38
2022-12-11T12:04:42.923Z,12.95
2022-12-11T12:10:02.992Z,12.88
2022-12-11T12:15:13.475Z,12.90
2022-12-11T12:20:17.982Z,16.50
2022-12-11T12:25:34.473Z,14.63
2022-12-11T12:30:44.989Z,13.45
2022-12-11T12:35:52.031Z,12.63
2022-12-11T12:41:02.747Z,11.00
2022-12-11T12:46:06.815Z,10.48
2022-12-11T12:51:12.105Z,11.43
2022-12-11T12:56:13.773Z,11.18
2022-12-11T13:01:17.099Z,11.38
2022-12-11T13:06:28.456Z,10.63
2022-12-11T13:11:34.079Z,11.32
2022-12-11T13:16:37.420Z,11.73
2022-12-11T13:21:38.775Z,11.07
2022-12-11T13:26:40.728Z,12.27
2022-12-11T13:31:43.935Z,11.83
2022-12-11T13:36:49.833Z,12.40
2022-12-11T13:42:17.645Z,14.18
2022-12-11T13:47:19.785Z,11.85
2022-12-11T13:52:22.610Z,12.68
2022-12-11T13:57:28.656Z,14.63
2022-12-11T14:02:33.696Z,12.63
2022-12-11T14:07:43.189Z,11.93
2022-12-11T14:12:51.706Z,12.05
2022-12-11T14:17:54.334Z,12.15
2022-12-11T14:23:15.608Z,11.70
2022-12-11T14:28:17.425Z,13.80
2022-12-11T14:33:21.433Z,12.98
2022-12-11T14:38:42.960Z,14.27
2022-12-11T14:43:47.538Z,12.65
2022-12-11T14:49:11.597Z,12.10
2022-12-11T14:54:20.385Z,12.25
2022-12-11T14:59:29.992Z,12.90
2022-12-11T15:04:33.570Z,12.38
2022-12-11T15:09:36.058Z,13.18
2022-12-11T15:14:42.578Z,12.47
2022-12-11T15:19:47.554Z,12.95
2022-12-11T15:24:51.127Z,12.90
2022-12-11T15:29:52.493Z,12.85
2022-12-11T15:35:11.721Z,13.85
2022-12-11T15:40:13.306Z,12.60
2022-12-11T15:45:21.947Z,13.52
2022-12-11T15:50:23.319Z,12.65
2022-12-11T15:55:26.441Z,13.10
2022-12-11T16:00:28.162Z,11.30
2022-12-11T16:05:29.426Z,12.90
2022-12-11T16:10:30.703Z,13.45
2022-12-11T16:15:32.025Z,12.90
2022-12-11T16:20:34.307Z,12.25
2022-12-11T16:25:39.283Z,12.80
2022-12-11T16:30:40.776Z,12.63
2022-12-11T16:35:42.783Z,12.18
2022-12-11T16:40:45.426Z,13.13
2022-12-11T16:45:46.716Z,12.95
2022-12-11T16:50:47.986Z,13.90
2022-12-11T16:55:49.613Z,14.10
2022-12-11T17:00:50.921Z,14.02
2022-12-11T17:05:52.225Z,12.65
2022-12-11T17:10:53.554Z,12.38
2022-12-11T17:15:54.894Z,13.98
2022-12-11T17:20:56.136Z,14.77
2022-12-11T17:25:57.497Z,15.25
2022-12-11T17:30:58.819Z,22.40
2022-12-11T17:36:04.332Z,15.90
2022-12-11T17:41:06.509Z,16.33
2022-12-11T17:46:10.001Z,14.53
2022-12-11T17:51:12.305Z,15.15
2022-12-11T17:56:13.644Z,15.13
2022-12-11T18:01:15.081Z,14.88
2022-12-11T18:06:17.317Z,15.45
2022-12-11T18:11:19.426Z,17.47
2022-12-11T18:16:22.683Z,17.25
2022-12-11T18:21:25.812Z,17.52
2022-12-11T18:26:27.340Z,19.75
2022-12-11T18:31:28.711Z,32.03
2022-12-11T18:36:29.979Z,22.80
2022-12-11T18:41:31.224Z,21.13
2022-12-11T18:46:32.580Z,18.65
2022-12-11T18:51:34.061Z,21.58
2022-12-11T18:56:35.789Z,21.27
2022-12-11T19:01:37.080Z,24.83
2022-12-11T19:06:38.494Z,19.40
2022-12-11T19:11:40.309Z,17.52
2022-12-11T19:16:42.931Z,22.33
2022-12-11T19:21:44.852Z,16.88
2022-12-11T19:26:46.142Z,14.27
2022-12-11T19:31:47.647Z,15.30
2022-12-11T19:36:48.961Z,18.60
2022-12-11T19:41:50.294Z,18.83
2022-12-11T19:46:51.744Z,17.92
2022-12-11T19:51:53.084Z,19.83
2022-12-11T19:56:54.474Z,20.83
2022-12-11T20:01:55.790Z,20.60
2022-12-11T20:06:57.131Z,17.83
2022-12-11T20:11:58.430Z,19.17
2022-12-11T20:17:15.508Z,18.60
2022-12-11T20:22:16.912Z,16.48
2022-12-11T20:27:18.256Z,17.55
2022-12-11T20:32:19.537Z,16.90
2022-12-11T20:37:20.863Z,15.52
2022-12-11T20:42:22.674Z,15.97
2022-12-11T20:47:24.120Z,17.17
2022-12-11T20:52:25.479Z,17.17
2022-12-11T20:57:26.770Z,17.45
2022-12-11T21:02:30.742Z,17.05
2022-12-11T21:07:32.051Z,17.90
2022-12-11T21:12:33.441Z,18.52
2022-12-11T21:17:34.848Z,19.27
2022-12-11T21:22:36.265Z,20.52
2022-12-11T21:27:37.576Z,24.73
2022-12-11T21:32:38.962Z,17.83
2022-12-11T21:37:41.833Z,18.13
2022-12-11T21:42:43.182Z,17.83
2022-12-11T21:47:44.467Z,17.40
2022-12-11T21:52:45.749Z,17.90
2022-12-11T21:57:47.052Z,16.80
2022-12-11T22:02:48.362Z,16.77
2022-12-11T22:07:49.692Z,15.88
2022-12-11T22:12:50.977Z,16.90
2022-12-11T22:17:52.249Z,16.52
2022-12-11T22:22:53.471Z,18.20
2022-12-11T22:27:54.760Z,15.68
2022-12-11T22:32:56.030Z,16.77
2022-12-11T22:37:57.320Z,14.77
2022-12-11T22:42:58.770Z,12.63
2022-12-11T22:47:59.975Z,12.17
2022-12-11T22:53:01.260Z,11.77
2022-12-11T22:58:02.489Z,12.73
2022-12-11T23:03:03.818Z,13.02
2022-12-11T23:08:05.468Z,12.25
2022-12-11T23:13:06.946Z,11.40
2022-12-11T23:18:08.204Z,12.27
2022-12-11T23:23:09.485Z,11.75
2022-12-11T23:28:10.792Z,11.27
2022-12-11T23:33:12.080Z,12.13
2022-12-11T23:38:13.760Z,12.03
2022-12-11T23:43:15.089Z,11.30
2022-12-11T23:48:16.774Z,12.45
2022-12-11T23:53:18.271Z,12.98
2022-12-11T23:58:19.598Z,12.85
